Deo Volente — PHFJ — position and weather

sailwx.info

Track history (hours):
 
Tides and Currents Weather Stations Pressure Air Temp Water Temp Dewpoint Dewpoint Depression Visibility Wind Speed Wind Dir Waves Ship Positions

Deo Volente

Last reported at 2017-Jan-23 08:33 UTC. Time now 2017-Jan-23 08:39 UTC.
Position N 53°10' E 008°35'.

Length 105 m; draft 4.8 m.

Type: Cargo ship. MMSI: 246518000.

Date/timePositionNaut miles runAvg speedWind from/ knotsBaromVisibWave heightAir tempDewpointWater temp
2017-Jan-23 08:33N 53°10' E 008°35'0 0.0
2017-Jan-23 07:33N 53°10' E 008°35'0 0.0
2017-Jan-23 06:33N 53°10' E 008°35'0 0.0
2017-Jan-23 05:33N 53°10' E 008°35'0 0.0
2017-Jan-23 04:33N 53°10' E 008°35'0 0.0
2017-Jan-23 03:33N 53°10' E 008°35'0 0.0
2017-Jan-23 02:33N 53°10' E 008°35'0 0.0
2017-Jan-23 01:33N 53°10' E 008°35'0 0.0
2017-Jan-23 00:33N 53°10' E 008°35'0 0.0
2017-Jan-22 23:33N 53°10' E 008°35'0 0.0
2017-Jan-22 22:34N 53°10' E 008°35'0 0.0
2017-Jan-22 21:33N 53°10' E 008°35'0 0.0
2017-Jan-22 20:34N 53°10' E 008°35'0 0.0
2017-Jan-22 19:33N 53°10' E 008°35'0 0.0
2017-Jan-22 18:33N 53°10' E 008°35'0 0.0
2017-Jan-22 17:33N 53°10' E 008°35'0 0.0
2017-Jan-22 16:33N 53°10' E 008°35'0 0.1
2017-Jan-22 15:33N 53°10' E 008°35'0 0.4
2017-Jan-22 14:33N 53°11' E 008°35'9 9.5
2017-Jan-22 13:33N 53°19' E 008°29'1212.1
2017-Jan-22 12:33N 53°31' E 008°33'1211.9
2017-Jan-22 11:33N 53°41' E 008°21'1514.5
2017-Jan-22 10:33N 53°50' E 008°03'1514.8
2017-Jan-22 09:33N 53°54' E 007°38'1815.8
2017-Jan-22 08:24N 53°50' E 007°07'3016.4
2017-Jan-22 06:33N 53°43' E 006°18'1716.9
2017-Jan-22 05:33N 53°38' E 005°50'1717.0
2017-Jan-22 04:33N 53°33' E 005°23'1717.2
2017-Jan-22 03:33N 53°27' E 004°56'1717.0
2017-Jan-22 02:34N 53°15' E 004°37'1817.8
2017-Jan-22 01:33N 52°60' E 004°22'1818.0
2017-Jan-22 00:34N 52°44' E 004°08'1818.2
2017-Jan-21 23:33N 52°27' E 003°54'1818.1
2017-Jan-21 22:33N 52°09' E 003°54'1312.6
2017-Jan-21 21:34N 51°59' E 004°05'1111.2
2017-Jan-21 20:33N 51°54' E 004°22'2 2.0
2017-Jan-21 19:33N 51°54' E 004°25'0 0.0
2017-Jan-21 18:33N 51°54' E 004°25'0 0.0
2017-Jan-21 17:33N 51°54' E 004°25'0 0.0
2017-Jan-21 16:33N 51°54' E 004°25'0 0.0
2017-Jan-21 15:33N 51°54' E 004°25'0 0.3
2017-Jan-21 14:33N 51°54' E 004°25'8 8.4
2017-Jan-21 13:33N 51°56' E 004°12'1414.0
2017-Jan-21 12:33N 51°59' E 003°49'1515.0
2017-Jan-21 11:32N 51°56' E 003°25'1816.8
2017-Jan-21 10:28N 51°50' E 002°58'1516.7
2017-Jan-21 09:33N 51°43' E 002°36'1817.7
2017-Jan-21 08:33N 51°30' E 002°17'1818.1
2017-Jan-21 07:33N 51°14' E 002°03'1817.8
2017-Jan-21 06:33N 51°04' E 001°40'1817.3
2017-Jan-21 05:30N 50°49' E 001°23'5416.4
2017-Jan-21 02:12N 50°23' E 000°09'1517.4
2017-Jan-21 01:21N 50°18' W 000°14'3217.0
2017-Jan-20 23:30N 50°09' W 001°01'1516.0
2017-Jan-20 22:33N 50°04' W 001°23'1616.1
2017-Jan-20 21:33N 49°60' W 001°47'1515.3
2017-Jan-20 20:33N 49°55' W 002°10'12915.8
2017-Jan-20 12:24N 48°57' W 005°07'1416.9
2017-Jan-20 11:33N 48°50' W 005°26'60615.9
2017-Jan-18 21:31N 39°15' W 009°51'1616.7
2017-Jan-18 20:33N 38°59' W 009°51'1716.7
2017-Jan-18 19:34N 38°42' W 009°51'1716.6
2017-Jan-18 18:33N 38°26' W 009°46'1716.8
2017-Jan-18 17:33N 38°09' W 009°42'1817.1
2017-Jan-18 16:30N 37°52' W 009°36'22615.1
2017-Jan-18 01:33N 35°59' W 005°32'1515.1
2017-Jan-18 00:33N 36°03' W 005°14'  
2017-Jan-15 10:33N 36°21' E 013°45'1716.7
2017-Jan-15 09:33N 36°13' E 014°03'1717.4
2017-Jan-15 08:33N 36°05' E 014°22'1716.6
2017-Jan-15 07:33N 35°53' E 014°36'3 2.7
2017-Jan-15 06:30N 35°50' E 014°36'0 0.0
2017-Jan-15 05:30N 35°50' E 014°36'0 0.0
2017-Jan-15 04:15N 35°50' E 014°36'1 1.1
2017-Jan-15 03:26N 35°50' E 014°37'1010.6
2017-Jan-15 02:32N 35°49' E 014°49'0 0.0
2017-Jan-15 01:14N 35°49' E 014°49'0 0.0
2017-Jan-15 00:24N 35°49' E 014°49'  
Track history (hours):
 
Tides and Currents Weather Stations Pressure Air Temp Water Temp Dewpoint Dewpoint Depression Visibility Wind Speed Wind Dir Waves Ship Positions

Deo Volente

Last reported at 2017-Jan-23 08:33 UTC. Time now 2017-Jan-23 08:39 UTC.
Position N 53°10' E 008°35'.

Length 105 m; draft 4.8 m.

Type: Cargo ship. MMSI: 246518000.

Date/timePositionNaut miles runAvg speedWind from/ knotsBaromVisibWave heightAir tempDewpointWater temp
2017-Jan-23 08:33N 53°10' E 008°35'0 0.0
2017-Jan-23 07:33N 53°10' E 008°35'0 0.0
2017-Jan-23 06:33N 53°10' E 008°35'0 0.0
2017-Jan-23 05:33N 53°10' E 008°35'0 0.0
2017-Jan-23 04:33N 53°10' E 008°35'0 0.0
2017-Jan-23 03:33N 53°10' E 008°35'0 0.0
2017-Jan-23 02:33N 53°10' E 008°35'0 0.0
2017-Jan-23 01:33N 53°10' E 008°35'0 0.0
2017-Jan-23 00:33N 53°10' E 008°35'0 0.0
2017-Jan-22 23:33N 53°10' E 008°35'0 0.0
2017-Jan-22 22:34N 53°10' E 008°35'0 0.0
2017-Jan-22 21:33N 53°10' E 008°35'0 0.0
2017-Jan-22 20:34N 53°10' E 008°35'0 0.0
2017-Jan-22 19:33N 53°10' E 008°35'0 0.0
2017-Jan-22 18:33N 53°10' E 008°35'0 0.0
2017-Jan-22 17:33N 53°10' E 008°35'0 0.0
2017-Jan-22 16:33N 53°10' E 008°35'0 0.1
2017-Jan-22 15:33N 53°10' E 008°35'0 0.4
2017-Jan-22 14:33N 53°11' E 008°35'9 9.5
2017-Jan-22 13:33N 53°19' E 008°29'1212.1
2017-Jan-22 12:33N 53°31' E 008°33'1211.9
2017-Jan-22 11:33N 53°41' E 008°21'1514.5
2017-Jan-22 10:33N 53°50' E 008°03'1514.8
2017-Jan-22 09:33N 53°54' E 007°38'1815.8
2017-Jan-22 08:24N 53°50' E 007°07'3016.4
2017-Jan-22 06:33N 53°43' E 006°18'1716.9
2017-Jan-22 05:33N 53°38' E 005°50'1717.0
2017-Jan-22 04:33N 53°33' E 005°23'1717.2
2017-Jan-22 03:33N 53°27' E 004°56'1717.0
2017-Jan-22 02:34N 53°15' E 004°37'1817.8
2017-Jan-22 01:33N 52°60' E 004°22'1818.0
2017-Jan-22 00:34N 52°44' E 004°08'1818.2
2017-Jan-21 23:33N 52°27' E 003°54'1818.1
2017-Jan-21 22:33N 52°09' E 003°54'1312.6
2017-Jan-21 21:34N 51°59' E 004°05'1111.2
2017-Jan-21 20:33N 51°54' E 004°22'2 2.0
2017-Jan-21 19:33N 51°54' E 004°25'0 0.0
2017-Jan-21 18:33N 51°54' E 004°25'0 0.0
2017-Jan-21 17:33N 51°54' E 004°25'0 0.0
2017-Jan-21 16:33N 51°54' E 004°25'0 0.0
2017-Jan-21 15:33N 51°54' E 004°25'0 0.3
2017-Jan-21 14:33N 51°54' E 004°25'8 8.4
2017-Jan-21 13:33N 51°56' E 004°12'1414.0
2017-Jan-21 12:33N 51°59' E 003°49'1515.0
2017-Jan-21 11:32N 51°56' E 003°25'1816.8
2017-Jan-21 10:28N 51°50' E 002°58'1516.7
2017-Jan-21 09:33N 51°43' E 002°36'1817.7
2017-Jan-21 08:33N 51°30' E 002°17'1818.1
2017-Jan-21 07:33N 51°14' E 002°03'1817.8
2017-Jan-21 06:33N 51°04' E 001°40'1817.3
2017-Jan-21 05:30N 50°49' E 001°23'5416.4
2017-Jan-21 02:12N 50°23' E 000°09'1517.4
2017-Jan-21 01:21N 50°18' W 000°14'3217.0
2017-Jan-20 23:30N 50°09' W 001°01'1516.0
2017-Jan-20 22:33N 50°04' W 001°23'1616.1
2017-Jan-20 21:33N 49°60' W 001°47'1515.3
2017-Jan-20 20:33N 49°55' W 002°10'12915.8
2017-Jan-20 12:24N 48°57' W 005°07'1416.9
2017-Jan-20 11:33N 48°50' W 005°26'60615.9
2017-Jan-18 21:31N 39°15' W 009°51'1616.7
2017-Jan-18 20:33N 38°59' W 009°51'1716.7
2017-Jan-18 19:34N 38°42' W 009°51'1716.6
2017-Jan-18 18:33N 38°26' W 009°46'1716.8
2017-Jan-18 17:33N 38°09' W 009°42'1817.1
2017-Jan-18 16:30N 37°52' W 009°36'22615.1
2017-Jan-18 01:33N 35°59' W 005°32'1515.1
2017-Jan-18 00:33N 36°03' W 005°14'  
2017-Jan-15 10:33N 36°21' E 013°45'1716.7
2017-Jan-15 09:33N 36°13' E 014°03'1717.4
2017-Jan-15 08:33N 36°05' E 014°22'1716.6
2017-Jan-15 07:33N 35°53' E 014°36'3 2.7
2017-Jan-15 06:30N 35°50' E 014°36'0 0.0
2017-Jan-15 05:30N 35°50' E 014°36'0 0.0
2017-Jan-15 04:15N 35°50' E 014°36'1 1.1
2017-Jan-15 03:26N 35°50' E 014°37'1010.6
2017-Jan-15 02:32N 35°49' E 014°49'0 0.0
2017-Jan-15 01:14N 35°49' E 014°49'0 0.0
2017-Jan-15 00:24N 35°49' E 014°49'  

Dump ship's entire track history